Time;durP1;ratioP1;P1;durP2;ratioP2;P2;SDS_P1;SDS_P2;PMS_P1;PMS_P2;Temp;Humidity;BMP_temperature;BMP_pressure;BME280_temperature;BME280_humidity;BME280_pressure;Samples;Min_cycle;Max_cycle;Signal;HPM_P1;HPM_P2
2021/09/12 00:02:03;;;;;;;12.27;9.70;;;17.60;60.80;;;;;;5032161;28;20035;-64
2021/09/12 00:04:29;;;;;;;12.48;9.68;;;17.60;61.00;;;;;;5033552;28;20368;-65
2021/09/12 00:06:55;;;;;;;12.25;9.35;;;17.60;61.10;;;;;;5033490;28;20029;-64
2021/09/12 00:09:20;;;;;;;13.60;10.43;;;17.60;61.10;;;;;;5033435;28;20038;-65
2021/09/12 00:11:46;;;;;;;13.55;10.23;;;17.50;61.50;;;;;;5033414;28;20025;-64
2021/09/12 00:14:12;;;;;;;13.35;10.50;;;17.50;61.40;;;;;;5033474;28;20029;-65
2021/09/12 00:16:37;;;;;;;13.52;10.27;;;17.50;61.60;;;;;;5033763;28;20072;-65
2021/09/12 00:19:03;;;;;;;13.30;9.80;;;17.50;61.60;;;;;;5033198;28;20025;-64
2021/09/12 00:21:29;;;;;;;12.35;9.98;;;17.50;61.60;;;;;;5033165;28;20025;-63
2021/09/12 00:23:54;;;;;;;13.27;10.77;;;17.50;61.80;;;;;;5033045;28;20435;-65
2021/09/12 00:26:20;;;;;;;12.00;9.68;;;17.50;61.70;;;;;;5033125;28;20061;-64
2021/09/12 00:28:46;;;;;;;11.60;9.15;;;17.50;61.70;;;;;;5033244;28;20060;-64
2021/09/12 00:31:11;;;;;;;12.00;9.30;;;17.50;61.60;;;;;;5032993;28;20383;-65
2021/09/12 00:33:37;;;;;;;14.10;9.55;;;17.40;61.60;;;;;;5032966;28;20075;-65
2021/09/12 00:36:03;;;;;;;10.75;8.32;;;17.40;61.60;;;;;;5032956;28;20029;-65
2021/09/12 00:38:29;;;;;;;11.90;8.40;;;17.40;61.60;;;;;;5032634;28;20021;-64
2021/09/12 00:40:58;;;;;;;10.55;8.13;;;17.30;61.60;;;;;;5032872;28;20429;-65
2021/09/12 00:43:25;;;;;;;12.38;8.30;;;17.30;61.60;;;;;;5032930;28;20056;-65
2021/09/12 00:45:55;;;;;;;12.55;8.25;;;17.30;61.70;;;;;;5032771;28;20022;-64
2021/09/12 00:48:21;;;;;;;11.18;8.77;;;17.30;61.80;;;;;;5032542;28;20021;-64
2021/09/12 00:50:47;;;;;;;11.70;8.68;;;17.30;61.80;;;;;;5032336;28;20041;-64
2021/09/12 00:53:15;;;;;;;12.27;9.45;;;17.20;61.90;;;;;;5032490;28;20064;-64
2021/09/12 00:55:42;;;;;;;11.88;9.20;;;17.20;61.90;;;;;;5032544;28;20037;-64
2021/09/12 00:58:10;;;;;;;11.93;8.77;;;17.20;61.90;;;;;;5032534;28;20060;-64
2021/09/12 01:00:36;;;;;;;10.95;8.48;;;17.10;62.00;;;;;;5032295;28;20568;-64
2021/09/12 01:03:02;;;;;;;11.18;8.40;;;17.10;61.90;;;;;;5032392;28;20033;-64
2021/09/12 01:05:27;;;;;;;10.77;8.48;;;17.00;62.10;;;;;;5032328;28;20106;-63
2021/09/12 01:07:53;;;;;;;11.70;8.45;;;17.00;62.10;;;;;;5032254;28;20029;-64
2021/09/12 01:10:18;;;;;;;12.10;9.10;;;17.00;62.30;;;;;;5032211;28;20029;-65
2021/09/12 01:12:45;;;;;;;12.30;9.63;;;17.00;62.50;;;;;;5032090;28;20057;-65
2021/09/12 01:15:11;;;;;;;12.77;9.55;;;16.90;62.70;;;;;;5032155;28;20024;-63
2021/09/12 01:17:36;;;;;;;13.10;10.27;;;16.90;62.70;;;;;;5032102;28;20540;-64
2021/09/12 01:20:03;;;;;;;13.75;10.50;;;16.90;62.80;;;;;;5032252;28;20029;-65
2021/09/12 01:22:29;;;;;;;13.38;10.48;;;16.90;63.10;;;;;;5031504;28;20075;-65
2021/09/12 01:24:55;;;;;;;13.80;10.88;;;16.90;63.30;;;;;;5032145;28;20029;-65
2021/09/12 01:27:20;;;;;;;13.10;9.80;;;16.90;64.00;;;;;;5032198;28;20043;-65
2021/09/12 01:29:47;;;;;;;13.15;10.15;;;16.80;63.20;;;;;;5032493;28;20124;-64
2021/09/12 01:32:12;;;;;;;13.18;10.45;;;16.80;63.40;;;;;;5031694;28;20025;-64
2021/09/12 01:34:38;;;;;;;15.63;11.20;;;16.80;63.50;;;;;;5030864;28;20548;-64
2021/09/12 01:37:04;;;;;;;13.18;10.25;;;16.80;63.70;;;;;;5031819;28;20101;-66
2021/09/12 01:39:30;;;;;;;14.68;11.65;;;16.80;63.70;;;;;;5031926;28;20101;-64
2021/09/12 01:41:55;;;;;;;14.90;11.63;;;16.70;64.20;;;;;;5031937;28;20030;-65
2021/09/12 01:44:24;;;;;;;15.27;11.55;;;16.70;64.10;;;;;;5031578;28;20464;-64
2021/09/12 01:46:53;;;;;;;13.30;11.30;;;16.70;64.30;;;;;;5031858;28;20361;-65
2021/09/12 01:49:20;;;;;;;14.32;11.10;;;16.70;64.40;;;;;;5031534;28;20108;-64
2021/09/12 01:51:46;;;;;;;14.27;10.82;;;16.70;64.40;;;;;;5031367;28;20057;-65
2021/09/12 01:54:12;;;;;;;13.45;10.82;;;16.70;64.40;;;;;;5031717;28;20033;-65
2021/09/12 01:56:38;;;;;;;13.15;10.45;;;16.60;64.40;;;;;;5031707;28;20472;-65
2021/09/12 01:59:04;;;;;;;12.25;8.98;;;16.60;64.40;;;;;;5031700;28;20021;-65
2021/09/12 02:01:29;;;;;;;11.63;9.00;;;16.50;64.30;;;;;;5031705;28;20026;-65
2021/09/12 02:03:55;;;;;;;14.13;9.85;;;16.50;64.50;;;;;;5031561;28;20109;-65
2021/09/12 02:06:21;;;;;;;14.30;10.30;;;16.50;64.60;;;;;;5031716;28;20426;-63
2021/09/12 02:08:46;;;;;;;12.20;9.43;;;16.40;64.70;;;;;;5031620;28;20079;-65
2021/09/12 02:11:12;;;;;;;13.65;9.57;;;16.30;64.60;;;;;;5031472;28;20384;-64
2021/09/12 02:13:38;;;;;;;11.80;9.48;;;16.30;64.70;;;;;;5031477;28;20476;-64
2021/09/12 02:16:04;;;;;;;11.88;8.88;;;16.20;65.00;;;;;;5031336;28;20480;-64
2021/09/12 02:18:30;;;;;;;12.70;9.50;;;16.20;65.00;;;;;;5031391;28;20025;-63
2021/09/12 02:20:56;;;;;;;12.52;9.27;;;16.20;65.10;;;;;;5031441;28;20088;-65
2021/09/12 02:23:21;;;;;;;12.82;9.07;;;16.10;65.10;;;;;;5031520;28;20049;-65
2021/09/12 02:25:47;;;;;;;13.73;10.38;;;16.00;65.20;;;;;;5031583;28;20124;-63
2021/09/12 02:28:13;;;;;;;13.95;9.95;;;16.00;65.50;;;;;;5031678;28;20051;-65
2021/09/12 02:30:39;;;;;;;13.40;10.45;;;16.00;65.70;;;;;;5031318;28;20145;-63
2021/09/12 02:33:04;;;;;;;13.13;10.18;;;15.90;65.70;;;;;;5031290;28;20040;-65
2021/09/12 02:35:30;;;;;;;13.52;10.20;;;15.90;65.80;;;;;;5035103;28;20057;-64
2021/09/12 02:37:56;;;;;;;14.40;11.10;;;15.90;66.00;;;;;;5033816;28;20021;-64
2021/09/12 02:40:22;;;;;;;14.43;11.00;;;15.90;66.40;;;;;;5035090;28;20026;-63
2021/09/12 02:42:48;;;;;;;14.00;9.98;;;15.90;66.40;;;;;;5035058;28;20037;-64
2021/09/12 02:45:13;;;;;;;12.85;9.90;;;15.90;66.40;;;;;;5034970;28;20362;-64
2021/09/12 02:47:39;;;;;;;14.43;10.30;;;15.80;66.30;;;;;;5034866;28;20029;-65
2021/09/12 02:50:05;;;;;;;11.95;9.48;;;15.70;66.30;;;;;;5034693;28;20025;-64
2021/09/12 02:52:31;;;;;;;14.63;11.75;;;15.70;66.50;;;;;;5034453;28;20053;-64
2021/09/12 02:54:57;;;;;;;16.02;11.88;;;15.70;67.20;;;;;;5034729;28;20025;-64
2021/09/12 02:57:23;;;;;;;16.33;11.77;;;15.70;67.40;;;;;;5034576;28;20048;-65
2021/09/12 02:59:49;;;;;;;16.40;12.35;;;15.70;68.10;;;;;;5034730;28;20022;-65
2021/09/12 03:02:14;;;;;;;15.73;12.05;;;15.70;67.70;;;;;;5034563;28;20030;-64
2021/09/12 03:04:40;;;;;;;15.55;12.90;;;15.70;67.80;;;;;;5034566;28;20431;-64
2021/09/12 03:07:06;;;;;;;16.27;12.95;;;15.70;68.10;;;;;;5034814;28;20033;-65
2021/09/12 03:09:31;;;;;;;15.80;12.88;;;15.70;68.10;;;;;;5035060;28;20037;-65
2021/09/12 03:11:57;;;;;;;16.13;12.75;;;15.70;68.20;;;;;;5034413;28;20125;-64
2021/09/12 03:14:23;;;;;;;16.77;13.70;;;15.70;68.50;;;;;;5034386;28;20040;-65
2021/09/12 03:16:48;;;;;;;17.58;13.95;;;15.70;68.90;;;;;;5034357;28;20028;-65
2021/09/12 03:19:15;;;;;;;16.80;13.30;;;15.70;68.90;;;;;;5034436;28;20101;-64
2021/09/12 03:21:41;;;;;;;18.33;14.25;;;15.60;68.80;;;;;;5034202;28;20046;-65
2021/09/12 03:24:07;;;;;;;18.95;13.57;;;15.70;69.20;;;;;;5034197;28;20045;-63
2021/09/12 03:26:33;;;;;;;14.75;11.70;;;15.60;68.90;;;;;;5034254;28;20025;-64
2021/09/12 03:28:58;;;;;;;15.25;12.13;;;15.60;68.70;;;;;;5034202;28;20384;-64
2021/09/12 03:31:24;;;;;;;14.93;11.82;;;15.50;68.90;;;;;;5034058;28;20060;-64
2021/09/12 03:33:50;;;;;;;14.85;11.23;;;15.50;68.70;;;;;;5034173;28;20107;-64
2021/09/12 03:36:15;;;;;;;13.65;11.05;;;15.50;68.70;;;;;;5034025;28;20369;-65
2021/09/12 03:38:41;;;;;;;14.10;10.85;;;15.40;68.80;;;;;;5033943;28;20028;-64
2021/09/12 03:41:07;;;;;;;14.48;10.68;;;15.40;68.90;;;;;;5033803;28;20100;-65
2021/09/12 03:43:32;;;;;;;14.65;11.60;;;15.40;68.90;;;;;;5034180;28;20463;-66
2021/09/12 03:45:58;;;;;;;17.05;12.98;;;15.40;69.00;;;;;;5033468;28;20037;-65
2021/09/12 03:48:24;;;;;;;15.32;12.48;;;15.40;69.10;;;;;;5033954;28;20088;-64
2021/09/12 03:50:50;;;;;;;18.17;13.88;;;15.50;69.10;;;;;;5033727;28;20064;-65
2021/09/12 03:53:16;;;;;;;17.52;12.80;;;15.50;69.50;;;;;;5034081;28;20104;-65
2021/09/12 03:55:42;;;;;;;15.57;12.90;;;15.60;69.30;;;;;;5033611;28;20376;-66
2021/09/12 03:58:08;;;;;;;17.40;13.13;;;15.60;69.20;;;;;;5033538;28;20511;-64
2021/09/12 04:00:33;;;;;;;15.65;11.80;;;15.70;69.10;;;;;;5033524;28;20104;-64
2021/09/12 04:02:59;;;;;;;16.02;12.20;;;15.70;68.90;;;;;;5033565;28;20057;-66
2021/09/12 04:05:25;;;;;;;15.52;11.90;;;15.70;68.80;;;;;;5033362;28;20030;-67
2021/09/12 04:07:50;;;;;;;16.48;12.55;;;15.70;68.90;;;;;;5033459;28;20464;-65
2021/09/12 04:10:17;;;;;;;17.67;13.88;;;15.80;69.10;;;;;;5033360;28;20472;-66
2021/09/12 04:12:43;;;;;;;17.17;14.25;;;15.80;69.10;;;;;;5033161;28;20057;-65
2021/09/12 04:15:09;;;;;;;16.10;12.75;;;15.90;69.10;;;;;;5033272;28;20068;-66
2021/09/12 04:17:35;;;;;;;16.38;13.02;;;15.90;68.90;;;;;;5033324;28;20025;-66
2021/09/12 04:20:01;;;;;;;16.45;12.75;;;15.90;68.90;;;;;;5033128;28;20067;-65
2021/09/12 04:22:27;;;;;;;14.60;11.68;;;16.00;68.80;;;;;;5033105;28;20026;-65
2021/09/12 04:24:52;;;;;;;14.73;11.27;;;16.00;68.70;;;;;;5033080;28;20044;-65
2021/09/12 04:27:18;;;;;;;15.25;11.32;;;16.10;68.80;;;;;;5032901;28;20022;-65
2021/09/12 04:29:44;;;;;;;14.57;11.77;;;16.10;68.80;;;;;;5033045;28;20030;-65
2021/09/12 04:32:09;;;;;;;15.77;12.60;;;16.10;68.80;;;;;;5032929;28;20112;-67
2021/09/12 04:34:35;;;;;;;16.48;13.05;;;16.20;69.10;;;;;;5033318;28;20055;-65
2021/09/12 04:37:01;;;;;;;16.10;13.90;;;16.30;69.10;;;;;;5032902;28;20032;-64
2021/09/12 04:39:26;;;;;;;22.63;18.73;;;16.30;69.50;;;;;;5032820;28;20056;-67
2021/09/12 04:41:52;;;;;;;29.17;23.98;;;16.40;69.70;;;;;;5032820;28;20508;-66
2021/09/12 04:44:18;;;;;;;25.48;19.80;;;16.50;69.60;;;;;;5032769;28;20061;-66
2021/09/12 04:46:43;;;;;;;20.73;16.65;;;16.50;69.40;;;;;;5032532;28;20021;-65
2021/09/12 04:49:09;;;;;;;19.63;14.85;;;16.60;69.30;;;;;;5032660;28;20063;-66
2021/09/12 04:51:34;;;;;;;17.27;13.70;;;16.60;69.30;;;;;;5032326;28;20045;-67
2021/09/12 04:54:00;;;;;;;15.90;12.70;;;16.70;69.20;;;;;;5032651;28;20022;-65
2021/09/12 04:56:26;;;;;;;16.75;13.25;;;16.70;69.10;;;;;;5031833;28;20071;-64
2021/09/12 04:58:51;;;;;;;15.35;12.23;;;16.80;69.20;;;;;;5032452;28;20078;-65
2021/09/12 05:01:17;;;;;;;14.70;11.80;;;16.90;69.20;;;;;;5032465;28;20033;-66
2021/09/12 05:03:44;;;;;;;15.20;11.48;;;16.90;69.70;;;;;;5032369;28;20027;-65
2021/09/12 05:06:10;;;;;;;17.08;13.23;;;16.90;69.00;;;;;;5032283;28;20109;-65
2021/09/12 05:08:36;;;;;;;14.75;11.80;;;17.00;69.20;;;;;;5032231;28;20036;-65
2021/09/12 05:11:02;;;;;;;14.57;12.40;;;17.10;69.10;;;;;;5032245;28;20510;-65
2021/09/12 05:13:27;;;;;;;16.80;13.95;;;17.10;69.10;;;;;;5032148;28;20036;-65
2021/09/12 05:15:54;;;;;;;17.70;13.90;;;17.20;69.20;;;;;;5032377;28;20091;-66
2021/09/12 05:18:20;;;;;;;15.73;13.07;;;17.20;69.10;;;;;;5032270;28;20083;-65
2021/09/12 05:20:46;;;;;;;16.35;12.82;;;17.20;68.90;;;;;;5031188;28;20029;-66
2021/09/12 05:23:12;;;;;;;14.43;12.30;;;17.30;68.90;;;;;;5032053;28;20048;-66
2021/09/12 05:25:37;;;;;;;16.10;12.68;;;17.30;68.80;;;;;;5032126;28;20071;-67
2021/09/12 05:28:03;;;;;;;14.75;11.88;;;17.40;68.90;;;;;;5031728;28;20036;-65
2021/09/12 05:30:29;;;;;;;16.95;12.98;;;17.40;68.60;;;;;;5032080;28;20116;-66
2021/09/12 05:32:55;;;;;;;16.25;11.52;;;17.50;68.50;;;;;;5031804;28;20053;-65
2021/09/12 05:35:21;;;;;;;14.57;12.00;;;17.50;68.30;;;;;;5031729;28;20100;-66
2021/09/12 05:37:47;;;;;;;13.43;11.50;;;17.50;68.20;;;;;;5031871;28;20049;-64
2021/09/12 05:40:13;;;;;;;13.98;11.25;;;17.60;68.20;;;;;;5031859;28;20504;-66
2021/09/12 05:42:40;;;;;;;14.52;11.13;;;17.60;68.00;;;;;;5031763;28;20025;-65
2021/09/12 05:45:08;;;;;;;15.43;11.73;;;17.70;67.90;;;;;;5031863;28;20029;-66
2021/09/12 05:47:34;;;;;;;14.07;10.65;;;17.70;67.80;;;;;;5031870;28;20034;-67
2021/09/12 05:50:00;;;;;;;14.43;11.02;;;17.70;67.60;;;;;;5031765;28;20029;-67
2021/09/12 05:52:26;;;;;;;14.98;12.23;;;17.80;67.50;;;;;;5031392;28;20053;-68
2021/09/12 05:54:52;;;;;;;12.80;10.00;;;17.90;67.40;;;;;;5031497;28;20100;-65
2021/09/12 05:57:17;;;;;;;13.55;11.05;;;18.00;67.10;;;;;;5031540;28;20128;-67
2021/09/12 05:59:43;;;;;;;12.60;10.05;;;18.10;66.90;;;;;;5031496;28;20022;-64
2021/09/12 06:02:09;;;;;;;13.35;10.60;;;18.20;66.70;;;;;;5031556;28;20029;-65
2021/09/12 06:04:35;;;;;;;12.68;10.80;;;18.20;66.50;;;;;;5031556;28;20070;-66
2021/09/12 06:07:01;;;;;;;13.82;9.82;;;18.30;66.30;;;;;;5031456;28;20021;-66
2021/09/12 06:09:26;;;;;;;12.50;10.23;;;18.50;66.10;;;;;;5035941;28;20030;-66
2021/09/12 06:11:52;;;;;;;12.25;9.70;;;18.50;65.80;;;;;;5035580;28;20040;-66
2021/09/12 06:14:19;;;;;;;12.38;9.25;;;18.70;65.70;;;;;;5035510;28;20037;-66
2021/09/12 06:16:45;;;;;;;12.10;9.70;;;18.80;65.50;;;;;;5035218;28;20056;-66
2021/09/12 06:19:11;;;;;;;12.18;9.35;;;18.90;65.20;;;;;;5035458;28;20029;-66
2021/09/12 06:21:36;;;;;;;11.73;9.20;;;19.00;65.00;;;;;;5035461;28;20025;-66
2021/09/12 06:24:02;;;;;;;12.00;8.98;;;19.10;64.80;;;;;;5035240;28;20057;-65
2021/09/12 06:26:28;;;;;;;11.95;9.10;;;19.20;64.40;;;;;;5035169;28;20473;-67
2021/09/12 06:28:54;;;;;;;12.57;9.40;;;19.30;64.10;;;;;;5035053;28;20029;-66
2021/09/12 06:31:20;;;;;;;11.55;8.82;;;19.40;63.70;;;;;;5034926;28;20032;-67
2021/09/12 06:33:45;;;;;;;11.65;9.18;;;19.50;63.50;;;;;;5033695;28;20029;-66
2021/09/12 06:36:11;;;;;;;11.88;9.27;;;19.60;63.10;;;;;;5034686;28;20030;-67
2021/09/12 06:38:37;;;;;;;11.07;8.73;;;19.70;62.70;;;;;;5034927;28;20025;-65
2021/09/12 06:41:03;;;;;;;12.73;9.13;;;19.80;62.50;;;;;;5034976;28;20025;-67
2021/09/12 06:43:29;;;;;;;11.77;8.35;;;19.90;62.20;;;;;;5034940;28;20104;-67
2021/09/12 06:45:55;;;;;;;11.35;8.75;;;20.00;62.10;;;;;;5035144;28;20160;-67
2021/09/12 06:48:20;;;;;;;11.05;8.35;;;20.10;62.00;;;;;;5034790;28;20029;-67
2021/09/12 06:50:46;;;;;;;9.25;7.80;;;20.20;61.90;;;;;;5034765;28;20045;-67
2021/09/12 06:53:12;;;;;;;11.85;8.32;;;20.20;61.70;;;;;;5035057;28;20044;-66
2021/09/12 06:55:39;;;;;;;11.02;9.07;;;20.30;61.70;;;;;;5034909;28;20029;-69
2021/09/12 06:58:05;;;;;;;10.88;8.45;;;20.40;61.70;;;;;;5035176;28;20026;-67
2021/09/12 07:00:31;;;;;;;12.38;10.30;;;20.50;61.70;;;;;;5035075;28;20445;-66
2021/09/12 07:02:58;;;;;;;11.77;9.60;;;20.60;61.40;;;;;;5034795;28;20029;-66
2021/09/12 07:05:24;;;;;;;13.00;10.50;;;20.70;61.50;;;;;;5034586;28;20108;-69
2021/09/12 07:07:50;;;;;;;11.85;9.90;;;20.70;61.60;;;;;;5034456;28;20109;-68
2021/09/12 07:10:18;;;;;;;11.50;9.38;;;20.90;61.70;;;;;;5034574;28;20100;-66
2021/09/12 07:12:44;;;;;;;12.40;9.30;;;21.00;61.80;;;;;;5034731;28;20105;-66
2021/09/12 07:15:10;;;;;;;10.82;8.50;;;21.10;61.70;;;;;;5034305;28;20014;-67
2021/09/12 07:17:36;;;;;;;10.93;8.90;;;21.40;61.80;;;;;;5034355;28;20029;-66
2021/09/12 07:20:02;;;;;;;10.85;8.40;;;21.60;61.50;;;;;;5033496;28;20091;-66
2021/09/12 07:22:28;;;;;;;10.77;8.50;;;21.80;61.40;;;;;;5034336;28;20025;-67
2021/09/12 07:24:54;;;;;;;10.63;8.70;;;22.10;61.20;;;;;;5034216;28;20040;-65
2021/09/12 07:27:19;;;;;;;10.15;8.15;;;22.30;60.90;;;;;;5034300;28;20030;-66
2021/09/12 07:29:45;;;;;;;10.52;8.73;;;22.60;60.60;;;;;;5034316;28;20116;-67
2021/09/12 07:32:10;;;;;;;10.55;8.63;;;22.80;60.30;;;;;;5033993;28;20087;-66
2021/09/12 07:34:36;;;;;;;11.18;8.55;;;23.10;59.90;;;;;;5034057;28;20446;-66
2021/09/12 07:37:02;;;;;;;10.20;8.02;;;23.40;59.60;;;;;;5034068;28;20484;-69
2021/09/12 07:39:28;;;;;;;11.70;8.85;;;23.60;59.10;;;;;;5032621;28;20058;-67
2021/09/12 07:41:53;;;;;;;11.43;8.90;;;24.00;58.70;;;;;;5033919;28;20079;-67
2021/09/12 07:44:19;;;;;;;10.88;8.60;;;24.20;58.40;;;;;;5034057;28;20034;-67
2021/09/12 07:46:45;;;;;;;10.55;8.82;;;24.60;58.30;;;;;;5034132;28;20044;-66
2021/09/12 07:49:10;;;;;;;11.77;8.13;;;24.90;57.90;;;;;;5034202;28;20342;-66
2021/09/12 07:51:36;;;;;;;11.93;9.32;;;25.40;57.70;;;;;;5033332;28;20061;-66
2021/09/12 07:54:02;;;;;;;11.30;9.70;;;25.80;56.70;;;;;;5033706;28;20032;-67
2021/09/12 07:56:27;;;;;;;10.70;9.02;;;26.00;55.60;;;;;;5033710;28;20034;-67
2021/09/12 07:58:53;;;;;;;11.30;9.75;;;26.20;55.40;;;;;;5033762;28;20425;-67
2021/09/12 08:01:18;;;;;;;11.50;9.25;;;26.40;54.80;;;;;;5033724;28;20526;-67
2021/09/12 08:03:44;;;;;;;9.88;8.70;;;26.70;54.70;;;;;;5033616;28;20056;-66
2021/09/12 08:06:10;;;;;;;10.88;9.10;;;27.00;54.20;;;;;;5033472;28;20030;-65
2021/09/12 08:08:35;;;;;;;12.32;9.10;;;27.30;53.70;;;;;;5033283;28;20384;-66
2021/09/12 08:11:01;;;;;;;11.48;8.50;;;27.60;52.90;;;;;;5033317;28;20029;-67
2021/09/12 08:13:27;;;;;;;9.93;8.05;;;27.80;52.60;;;;;;5033230;28;20079;-66
2021/09/12 08:15:52;;;;;;;11.45;8.85;;;28.10;52.20;;;;;;5033167;28;20052;-67
2021/09/12 08:18:19;;;;;;;10.65;8.82;;;28.40;50.80;;;;;;5033249;28;20029;-66
2021/09/12 08:20:46;;;;;;;11.75;8.88;;;28.60;50.00;;;;;;5033238;28;20017;-65
2021/09/12 08:23:12;;;;;;;11.43;8.45;;;28.80;49.30;;;;;;5033145;28;20025;-66
2021/09/12 08:25:38;;;;;;;10.25;8.43;;;29.00;49.20;;;;;;5033136;28;20132;-67
2021/09/12 08:28:04;;;;;;;9.50;7.88;;;29.30;48.90;;;;;;5033183;28;20052;-66
2021/09/12 08:30:29;;;;;;;10.55;8.10;;;29.60;48.50;;;;;;5032994;28;20125;-66
2021/09/12 08:32:55;;;;;;;10.65;9.02;;;29.90;48.10;;;;;;5032404;28;20152;-66
2021/09/12 08:35:21;;;;;;;10.60;8.95;;;30.20;47.00;;;;;;5032965;28;20028;-66
2021/09/12 08:37:47;;;;;;;11.35;8.82;;;30.20;46.60;;;;;;5032864;28;20022;-65
2021/09/12 08:40:13;;;;;;;10.82;9.32;;;30.30;46.40;;;;;;5032968;28;20073;-64
2021/09/12 08:42:41;;;;;;;13.88;10.68;;;30.50;46.20;;;;;;5032817;28;20034;-67
2021/09/12 08:45:07;;;;;;;11.18;9.55;;;30.70;44.60;;;;;;5032808;28;20109;-67
2021/09/12 08:47:34;;;;;;;10.82;8.93;;;30.80;45.10;;;;;;5032829;28;20025;-66
2021/09/12 08:50:01;;;;;;;11.77;9.25;;;30.90;45.00;;;;;;5032553;28;20108;-66
2021/09/12 08:52:27;;;;;;;10.00;7.93;;;31.10;44.10;;;;;;5032137;28;20049;-67
2021/09/12 08:54:52;;;;;;;12.98;8.38;;;31.30;44.30;;;;;;5032070;28;20018;-65
2021/09/12 08:57:18;;;;;;;10.95;8.25;;;31.60;43.90;;;;;;5032472;28;20065;-66
2021/09/12 08:59:51;;;;;;;10.88;8.15;;;31.60;43.30;;;;;;5032376;28;20048;-66
2021/09/12 09:02:24;;;;;;;10.15;8.40;;;31.70;42.40;;;;;;5032372;28;20025;-67
2021/09/12 09:05:03;;;;;;;12.23;9.55;;;31.80;42.50;;;;;;5032263;28;20024;-66
2021/09/12 09:07:30;;;;;;;12.07;9.05;;;31.90;41.70;;;;;;5032242;28;20029;-67
2021/09/12 09:09:57;;;;;;;15.88;9.40;;;32.00;41.80;;;;;;5032340;28;20025;-66
2021/09/12 09:12:34;;;;;;;10.98;8.40;;;32.10;40.90;;;;;;5032034;28;20396;-66
2021/09/12 09:15:07;;;;;;;8.52;6.40;;;32.30;40.60;;;;;;5032289;28;20028;-67
2021/09/12 09:17:44;;;;;;;7.32;6.20;;;32.40;40.80;;;;;;5032293;28;20101;-67
2021/09/12 09:20:12;;;;;;;6.75;5.05;;;32.70;40.80;;;;;;5032331;28;20100;-66
2021/09/12 09:22:40;;;;;;;6.13;4.70;;;33.20;40.60;;;;;;5032314;28;20065;-67
2021/09/12 09:25:27;;;;;;;7.35;5.22;;;33.50;40.00;;;;;;5032173;28;20055;-66
2021/09/12 09:27:58;;;;;;;7.32;4.30;;;34.00;38.30;;;;;;5032250;28;20040;-66
2021/09/12 09:30:25;;;;;;;;;;;34.30;39.00;;;;;;5032487;28;20403;-66
2021/09/12 09:32:51;;;;;;;6.35;4.53;;;34.30;35.00;;;;;;5032036;28;19908;-67
2021/09/12 09:35:22;;;;;;;6.45;4.05;;;34.80;38.90;;;;;;5032012;28;20044;-66
2021/09/12 09:37:48;;;;;;;6.10;4.03;;;35.40;38.30;;;;;;5032022;28;20100;-67
2021/09/12 09:40:14;;;;;;;6.75;4.43;;;35.80;38.30;;;;;;5031687;28;20033;-66
2021/09/12 09:42:42;;;;;;;6.43;4.32;;;36.30;37.80;;;;;;5031423;28;20087;-66
2021/09/12 09:45:10;;;;;;;6.40;4.32;;;36.80;37.20;;;;;;5031681;28;20072;-66
2021/09/12 09:47:37;;;;;;;6.20;3.60;;;37.20;37.00;;;;;;5031781;28;20018;-66
2021/09/12 09:50:10;;;;;;;6.28;4.00;;;37.50;36.80;;;;;;5030504;28;20396;-67
2021/09/12 09:52:37;;;;;;;6.10;4.20;;;37.80;35.20;;;;;;5031382;28;20484;-67
2021/09/12 09:55:05;;;;;;;5.47;3.90;;;38.10;35.80;;;;;;5031625;28;20045;-67
2021/09/12 09:57:33;;;;;;;7.00;5.80;;;38.30;35.70;;;;;;5031695;28;20057;-66
2021/09/12 10:00:00;;;;;;;6.80;4.68;;;38.60;35.40;;;;;;5031544;28;20491;-67
2021/09/12 10:02:26;;;;;;;6.13;4.55;;;38.90;35.10;;;;;;5031345;28;20464;-67
2021/09/12 10:04:52;;;;;;;8.20;4.57;;;39.10;34.90;;;;;;5031514;28;20026;-68
2021/09/12 10:07:20;;;;;;;6.20;4.70;;;39.20;34.50;;;;;;5031454;28;20061;-67
2021/09/12 10:09:46;;;;;;;6.28;4.40;;;39.40;34.50;;;;;;5030390;28;20021;-67
2021/09/12 10:12:13;;;;;;;7.10;5.38;;;39.60;34.30;;;;;;5031199;28;20064;-67
2021/09/12 10:14:53;;;;;;;6.30;5.07;;;40.00;34.20;;;;;;5031178;28;20048;-66
2021/09/12 10:17:21;;;;;;;5.70;4.47;;;40.20;34.00;;;;;;5031398;28;20028;-66
2021/09/12 10:19:48;;;;;;;6.78;4.72;;;40.60;33.40;;;;;;5031277;28;20109;-66
2021/09/12 10:22:16;;;;;;;6.03;4.60;;;40.70;33.20;;;;;;5031288;28;20026;-67
2021/09/12 10:25:00;;;;;;;6.60;4.30;;;40.70;33.10;;;;;;5031148;28;20538;-67
2021/09/12 10:27:36;;;;;;;5.80;3.78;;;40.90;31.50;;;;;;5031419;28;20484;-66
2021/09/12 10:30:25;;;;;;;5.97;4.03;;;41.10;32.30;;;;;;5031301;28;20034;-66
2021/09/12 10:32:52;;;;;;;6.47;3.72;;;41.20;31.70;;;;;;5031304;28;20026;-65
2021/09/12 10:35:26;;;;;;;6.45;3.67;;;41.40;32.40;;;;;;5031338;28;20101;-66
2021/09/12 10:38:00;;;;;;;4.80;3.13;;;41.50;32.00;;;;;;5031628;28;20359;-66
2021/09/12 10:40:47;;;;;;;5.15;3.30;;;41.70;31.90;;;;;;5031208;28;20353;-65
2021/09/12 10:43:25;;;;;;;5.38;3.13;;;41.80;31.40;;;;;;5027224;28;20030;-66
2021/09/12 10:46:09;;;;;;;4.80;3.28;;;42.00;31.50;;;;;;5031003;28;20021;-66
2021/09/12 10:48:36;;;;;;;5.55;3.40;;;42.20;30.20;;;;;;5031013;28;20049;-67
2021/09/12 10:51:23;;;;;;;5.22;3.40;;;42.20;31.30;;;;;;5030883;28;20476;-66
2021/09/12 10:54:00;;;;;;;5.95;3.03;;;42.30;31.20;;;;;;5027156;28;20084;-65
2021/09/12 10:56:26;;;;;;;5.68;3.30;;;42.50;31.00;;;;;;5035106;28;20543;-67
2021/09/12 10:58:57;;;;;;;4.70;3.00;;;42.60;30.80;;;;;;5034980;28;20037;-65
2021/09/12 11:01:28;;;;;;;6.45;3.10;;;42.80;30.70;;;;;;5033874;28;20369;-67
2021/09/12 11:03:57;;;;;;;4.38;2.70;;;43.10;30.60;;;;;;5034606;28;20030;-66
2021/09/12 11:06:23;;;;;;;6.20;2.95;;;43.00;30.40;;;;;;5034702;28;20060;-67
2021/09/12 11:08:49;;;;;;;5.15;2.80;;;43.00;30.20;;;;;;5034440;28;20025;-65
2021/09/12 11:11:15;;;;;;;5.80;3.35;;;43.10;30.10;;;;;;5034378;28;20428;-67
2021/09/12 11:13:41;;;;;;;4.63;2.80;;;43.10;29.90;;;;;;5034428;28;20056;-66
2021/09/12 11:16:10;;;;;;;5.30;2.90;;;43.20;30.00;;;;;;5034463;28;20025;-67
2021/09/12 11:18:51;;;;;;;5.15;3.15;;;43.30;29.90;;;;;;5034349;28;20060;-66
2021/09/12 11:21:46;;;;;;;4.80;3.25;;;43.50;29.20;;;;;;5033516;28;20030;-68
2021/09/12 11:24:21;;;;;;;5.55;3.00;;;43.50;29.40;;;;;;5034296;28;20025;-66
2021/09/12 11:27:03;;;;;;;4.78;2.92;;;43.70;28.90;;;;;;5034212;28;20376;-65
2021/09/12 11:29:36;;;;;;;5.00;3.28;;;43.70;29.40;;;;;;5034018;28;20025;-65
2021/09/12 11:32:06;;;;;;;6.22;3.10;;;43.70;29.50;;;;;;5034105;28;20025;-66
2021/09/12 11:34:33;;;;;;;5.10;3.00;;;43.80;29.60;;;;;;5034159;28;20022;-66
2021/09/12 11:37:01;;;;;;;5.20;3.20;;;43.90;28.90;;;;;;5033947;28;20250;-66
2021/09/12 11:39:29;;;;;;;5.13;3.03;;;43.90;29.00;;;;;;5034058;28;20044;-69
2021/09/12 11:41:58;;;;;;;4.55;3.00;;;43.80;29.00;;;;;;5033987;28;20021;-67
2021/09/12 11:44:41;;;;;;;4.50;3.00;;;43.80;29.10;;;;;;5034190;28;20682;-65
2021/09/12 11:47:09;;;;;;;4.43;2.90;;;43.90;28.50;;;;;;5033828;28;20112;-66
2021/09/12 11:49:35;;;;;;;4.90;3.03;;;44.00;28.90;;;;;;5034354;28;20030;-67
2021/09/12 11:52:00;;;;;;;5.43;3.10;;;44.20;29.10;;;;;;5033369;28;20045;-66
2021/09/12 11:54:31;;;;;;;4.68;2.90;;;44.30;29.00;;;;;;5033820;28;20029;-66
2021/09/12 11:57:01;;;;;;;4.65;2.90;;;44.40;28.80;;;;;;5033792;28;20045;-65
2021/09/12 11:59:40;;;;;;;5.07;3.00;;;44.30;28.70;;;;;;5034001;28;20538;-66
2021/09/12 12:02:13;;;;;;;4.85;2.95;;;44.30;28.30;;;;;;5033763;28;20025;-67
2021/09/12 12:04:40;;;;;;;4.70;2.88;;;44.30;28.70;;;;;;5033483;28;20076;-66
2021/09/12 12:07:06;;;;;;;4.93;3.03;;;44.50;28.70;;;;;;5033136;28;20080;-66
2021/09/12 12:09:46;;;;;;;5.70;3.60;;;44.40;28.50;;;;;;5033220;28;20033;-66
2021/09/12 12:12:14;;;;;;;4.45;2.90;;;44.30;28.40;;;;;;5033203;28;20362;-67
2021/09/12 12:14:47;;;;;;;4.20;2.90;;;44.10;28.50;;;;;;5033300;28;20104;-67
2021/09/12 12:17:15;;;;;;;4.82;2.80;;;44.10;28.60;;;;;;5033406;28;20100;-66
2021/09/12 12:19:41;;;;;;;5.82;2.95;;;44.00;28.60;;;;;;5033283;28;20068;-65
2021/09/12 12:22:08;;;;;;;4.10;2.53;;;44.20;28.70;;;;;;5033280;28;20037;-68
2021/09/12 12:24:36;;;;;;;4.90;2.90;;;44.30;28.60;;;;;;5033170;28;20423;-67
2021/09/12 12:27:08;;;;;;;4.47;2.65;;;44.50;28.60;;;;;;5033409;28;20025;-67
2021/09/12 12:29:35;;;;;;;5.95;2.83;;;44.60;28.50;;;;;;5033240;28;20067;-67
2021/09/12 12:32:03;;;;;;;4.32;2.67;;;44.70;28.50;;;;;;5033009;28;20439;-67
2021/09/12 12:34:48;;;;;;;5.22;2.90;;;44.80;28.50;;;;;;5033039;28;20061;-68
2021/09/12 12:37:16;;;;;;;5.35;2.70;;;44.80;28.80;;;;;;5033133;28;20021;-67